sensor_id;sensor_type;location;lat;lon;timestamp;P1;durP1;ratioP1;P2;durP2;ratioP2
54539;SDS011;40438;52.992;18.604;2022-12-07T00:01:41;15.85;;;5.70;;
54539;SDS011;40438;52.992;18.604;2022-12-07T00:04:10;17.33;;;5.22;;
54539;SDS011;40438;52.992;18.604;2022-12-07T00:06:38;8.57;;;3.97;;
54539;SDS011;40438;52.992;18.604;2022-12-07T00:09:07;12.98;;;5.22;;
54539;SDS011;40438;52.992;18.604;2022-12-07T00:11:35;13.00;;;4.57;;
54539;SDS011;40438;52.992;18.604;2022-12-07T00:14:02;24.15;;;5.25;;
54539;SDS011;40438;52.992;18.604;2022-12-07T00:16:31;12.50;;;5.50;;
54539;SDS011;40438;52.992;18.604;2022-12-07T00:18:58;12.90;;;4.65;;
54539;SDS011;40438;52.992;18.604;2022-12-07T00:21:25;12.10;;;4.32;;
54539;SDS011;40438;52.992;18.604;2022-12-07T00:23:53;8.80;;;3.72;;
54539;SDS011;40438;52.992;18.604;2022-12-07T00:26:22;8.70;;;3.80;;
54539;SDS011;40438;52.992;18.604;2022-12-07T00:28:50;9.10;;;3.95;;
54539;SDS011;40438;52.992;18.604;2022-12-07T00:31:17;15.32;;;4.50;;
54539;SDS011;40438;52.992;18.604;2022-12-07T00:33:44;13.45;;;5.22;;
54539;SDS011;40438;52.992;18.604;2022-12-07T00:36:12;17.02;;;4.35;;
54539;SDS011;40438;52.992;18.604;2022-12-07T00:38:39;8.63;;;4.25;;
54539;SDS011;40438;52.992;18.604;2022-12-07T00:41:07;8.68;;;3.92;;
54539;SDS011;40438;52.992;18.604;2022-12-07T00:43:36;8.75;;;3.45;;
54539;SDS011;40438;52.992;18.604;2022-12-07T00:46:03;21.23;;;6.10;;
54539;SDS011;40438;52.992;18.604;2022-12-07T00:48:29;20.70;;;7.30;;
54539;SDS011;40438;52.992;18.604;2022-12-07T00:50:55;17.88;;;6.68;;
54539;SDS011;40438;52.992;18.604;2022-12-07T00:53:21;13.27;;;5.10;;
54539;SDS011;40438;52.992;18.604;2022-12-07T00:55:47;10.80;;;5.13;;
54539;SDS011;40438;52.992;18.604;2022-12-07T00:58:13;11.70;;;5.00;;
54539;SDS011;40438;52.992;18.604;2022-12-07T01:00:41;9.85;;;4.03;;
54539;SDS011;40438;52.992;18.604;2022-12-07T01:03:08;9.13;;;4.10;;
54539;SDS011;40438;52.992;18.604;2022-12-07T01:05:35;8.80;;;4.45;;
54539;SDS011;40438;52.992;18.604;2022-12-07T01:08:01;11.18;;;4.07;;
54539;SDS011;40438;52.992;18.604;2022-12-07T01:10:28;7.57;;;3.92;;
54539;SDS011;40438;52.992;18.604;2022-12-07T01:12:54;9.70;;;3.72;;
54539;SDS011;40438;52.992;18.604;2022-12-07T01:15:19;8.57;;;3.95;;
54539;SDS011;40438;52.992;18.604;2022-12-07T01:17:46;10.32;;;4.13;;
54539;SDS011;40438;52.992;18.604;2022-12-07T01:20:12;8.93;;;3.78;;
54539;SDS011;40438;52.992;18.604;2022-12-07T01:22:39;11.13;;;4.93;;
54539;SDS011;40438;52.992;18.604;2022-12-07T01:25:05;10.43;;;4.38;;
54539;SDS011;40438;52.992;18.604;2022-12-07T01:27:32;10.43;;;5.35;;
54539;SDS011;40438;52.992;18.604;2022-12-07T01:29:58;16.20;;;5.05;;
54539;SDS011;40438;52.992;18.604;2022-12-07T01:32:23;23.60;;;8.00;;
54539;SDS011;40438;52.992;18.604;2022-12-07T01:34:51;26.77;;;8.45;;
54539;SDS011;40438;52.992;18.604;2022-12-07T01:37:16;19.90;;;7.25;;
54539;SDS011;40438;52.992;18.604;2022-12-07T01:39:42;15.63;;;6.35;;
54539;SDS011;40438;52.992;18.604;2022-12-07T01:42:08;14.02;;;6.32;;
54539;SDS011;40438;52.992;18.604;2022-12-07T01:47:34;12.80;;;4.55;;
54539;SDS011;40438;52.992;18.604;2022-12-07T01:50:01;11.88;;;5.65;;
54539;SDS011;40438;52.992;18.604;2022-12-07T01:52:28;16.50;;;6.15;;
54539;SDS011;40438;52.992;18.604;2022-12-07T01:54:56;11.52;;;4.93;;
54539;SDS011;40438;52.992;18.604;2022-12-07T01:57:25;13.93;;;4.75;;
54539;SDS011;40438;52.992;18.604;2022-12-07T01:59:51;13.95;;;5.15;;
54539;SDS011;40438;52.992;18.604;2022-12-07T02:02:19;11.85;;;5.38;;
54539;SDS011;40438;52.992;18.604;2022-12-07T02:04:48;13.32;;;6.25;;
54539;SDS011;40438;52.992;18.604;2022-12-07T02:07:17;14.65;;;5.68;;
54539;SDS011;40438;52.992;18.604;2022-12-07T02:09:44;14.43;;;5.25;;
54539;SDS011;40438;52.992;18.604;2022-12-07T02:12:10;13.52;;;5.55;;
54539;SDS011;40438;52.992;18.604;2022-12-07T02:14:36;17.52;;;5.53;;
54539;SDS011;40438;52.992;18.604;2022-12-07T02:17:05;17.05;;;6.75;;
54539;SDS011;40438;52.992;18.604;2022-12-07T02:25:44;12.23;;;5.15;;
54539;SDS011;40438;52.992;18.604;2022-12-07T02:28:28;10.80;;;4.35;;
54539;SDS011;40438;52.992;18.604;2022-12-07T02:31:01;11.95;;;4.20;;
54539;SDS011;40438;52.992;18.604;2022-12-07T02:33:32;11.05;;;4.40;;
54539;SDS011;40438;52.992;18.604;2022-12-07T02:36:02;8.38;;;3.90;;
54539;SDS011;40438;52.992;18.604;2022-12-07T02:38:33;9.25;;;4.07;;
54539;SDS011;40438;52.992;18.604;2022-12-07T02:41:04;8.00;;;3.25;;
54539;SDS011;40438;52.992;18.604;2022-12-07T02:43:35;9.60;;;4.18;;
54539;SDS011;40438;52.992;18.604;2022-12-07T02:46:08;8.10;;;3.97;;
54539;SDS011;40438;52.992;18.604;2022-12-07T02:51:06;11.48;;;3.13;;
54539;SDS011;40438;52.992;18.604;2022-12-07T02:53:32;6.45;;;3.22;;
54539;SDS011;40438;52.992;18.604;2022-12-07T02:56:00;8.57;;;3.75;;
54539;SDS011;40438;52.992;18.604;2022-12-07T02:58:38;10.32;;;4.53;;
54539;SDS011;40438;52.992;18.604;2022-12-07T03:01:20;11.15;;;3.97;;
54539;SDS011;40438;52.992;18.604;2022-12-07T03:03:57;9.95;;;4.07;;
54539;SDS011;40438;52.992;18.604;2022-12-07T03:06:33;13.27;;;5.00;;
54539;SDS011;40438;52.992;18.604;2022-12-07T03:09:06;7.53;;;3.65;;
54539;SDS011;40438;52.992;18.604;2022-12-07T03:11:41;9.52;;;3.30;;
54539;SDS011;40438;52.992;18.604;2022-12-07T03:14:12;8.90;;;3.95;;
54539;SDS011;40438;52.992;18.604;2022-12-07T03:16:42;7.57;;;3.95;;
54539;SDS011;40438;52.992;18.604;2022-12-07T03:19:15;8.30;;;3.60;;
54539;SDS011;40438;52.992;18.604;2022-12-07T03:21:46;6.95;;;2.90;;
54539;SDS011;40438;52.992;18.604;2022-12-07T03:24:17;6.15;;;3.30;;
54539;SDS011;40438;52.992;18.604;2022-12-07T03:26:47;10.20;;;3.15;;
54539;SDS011;40438;52.992;18.604;2022-12-07T03:29:17;7.22;;;3.60;;
54539;SDS011;40438;52.992;18.604;2022-12-07T03:31:50;7.95;;;3.33;;
54539;SDS011;40438;52.992;18.604;2022-12-07T03:34:21;6.15;;;2.50;;
54539;SDS011;40438;52.992;18.604;2022-12-07T03:36:54;5.47;;;2.50;;
54539;SDS011;40438;52.992;18.604;2022-12-07T03:39:26;4.82;;;2.58;;
54539;SDS011;40438;52.992;18.604;2022-12-07T03:41:56;4.05;;;2.53;;
54539;SDS011;40438;52.992;18.604;2022-12-07T03:44:24;7.07;;;2.75;;
54539;SDS011;40438;52.992;18.604;2022-12-07T03:46:55;5.28;;;3.00;;
54539;SDS011;40438;52.992;18.604;2022-12-07T03:49:28;5.65;;;2.22;;
54539;SDS011;40438;52.992;18.604;2022-12-07T03:52:02;6.72;;;2.85;;
54539;SDS011;40438;52.992;18.604;2022-12-07T03:54:34;3.90;;;2.42;;
54539;SDS011;40438;52.992;18.604;2022-12-07T03:57:03;9.13;;;3.03;;
54539;SDS011;40438;52.992;18.604;2022-12-07T03:59:31;8.48;;;3.35;;
54539;SDS011;40438;52.992;18.604;2022-12-07T04:02:01;4.85;;;3.10;;
54539;SDS011;40438;52.992;18.604;2022-12-07T04:04:29;9.88;;;3.88;;
54539;SDS011;40438;52.992;18.604;2022-12-07T04:06:55;9.60;;;3.75;;
54539;SDS011;40438;52.992;18.604;2022-12-07T04:09:21;7.88;;;3.85;;
54539;SDS011;40438;52.992;18.604;2022-12-07T04:11:47;8.25;;;4.00;;
54539;SDS011;40438;52.992;18.604;2022-12-07T04:14:13;10.48;;;3.47;;
54539;SDS011;40438;52.992;18.604;2022-12-07T04:16:39;11.07;;;4.35;;
54539;SDS011;40438;52.992;18.604;2022-12-07T04:19:06;9.95;;;4.32;;
54539;SDS011;40438;52.992;18.604;2022-12-07T04:21:31;11.63;;;4.30;;
54539;SDS011;40438;52.992;18.604;2022-12-07T04:23:57;7.15;;;3.60;;
54539;SDS011;40438;52.992;18.604;2022-12-07T04:26:23;7.85;;;3.85;;
54539;SDS011;40438;52.992;18.604;2022-12-07T04:28:49;8.65;;;3.92;;
54539;SDS011;40438;52.992;18.604;2022-12-07T04:31:14;8.73;;;3.58;;
54539;SDS011;40438;52.992;18.604;2022-12-07T04:33:40;8.73;;;3.72;;
54539;SDS011;40438;52.992;18.604;2022-12-07T04:36:07;10.32;;;3.42;;
54539;SDS011;40438;52.992;18.604;2022-12-07T04:38:33;8.57;;;3.97;;
54539;SDS011;40438;52.992;18.604;2022-12-07T04:41:03;9.88;;;3.58;;
54539;SDS011;40438;52.992;18.604;2022-12-07T04:43:30;8.65;;;3.30;;
54539;SDS011;40438;52.992;18.604;2022-12-07T04:45:55;9.82;;;4.15;;
54539;SDS011;40438;52.992;18.604;2022-12-07T04:48:21;8.18;;;3.70;;
54539;SDS011;40438;52.992;18.604;2022-12-07T04:50:47;10.15;;;4.18;;
54539;SDS011;40438;52.992;18.604;2022-12-07T04:53:14;6.57;;;3.28;;
54539;SDS011;40438;52.992;18.604;2022-12-07T04:55:40;7.53;;;3.55;;
54539;SDS011;40438;52.992;18.604;2022-12-07T04:58:06;7.82;;;3.30;;
54539;SDS011;40438;52.992;18.604;2022-12-07T05:00:32;6.72;;;3.33;;
54539;SDS011;40438;52.992;18.604;2022-12-07T05:02:58;10.93;;;4.07;;
54539;SDS011;40438;52.992;18.604;2022-12-07T05:05:23;5.45;;;2.85;;
54539;SDS011;40438;52.992;18.604;2022-12-07T05:07:49;6.53;;;3.15;;
54539;SDS011;40438;52.992;18.604;2022-12-07T05:10:16;7.15;;;3.70;;
54539;SDS011;40438;52.992;18.604;2022-12-07T05:12:42;7.70;;;3.55;;
54539;SDS011;40438;52.992;18.604;2022-12-07T05:15:08;6.35;;;3.63;;
54539;SDS011;40438;52.992;18.604;2022-12-07T05:17:35;7.65;;;3.40;;
54539;SDS011;40438;52.992;18.604;2022-12-07T05:20:00;10.07;;;3.50;;
54539;SDS011;40438;52.992;18.604;2022-12-07T05:22:26;6.80;;;2.85;;
54539;SDS011;40438;52.992;18.604;2022-12-07T05:24:52;9.18;;;3.97;;
54539;SDS011;40438;52.992;18.604;2022-12-07T05:27:19;6.72;;;2.92;;
54539;SDS011;40438;52.992;18.604;2022-12-07T05:29:45;7.18;;;3.42;;
54539;SDS011;40438;52.992;18.604;2022-12-07T05:32:11;7.45;;;3.08;;
54539;SDS011;40438;52.992;18.604;2022-12-07T05:34:37;5.32;;;2.47;;
54539;SDS011;40438;52.992;18.604;2022-12-07T05:37:02;7.00;;;2.70;;
54539;SDS011;40438;52.992;18.604;2022-12-07T05:39:28;5.75;;;3.22;;
54539;SDS011;40438;52.992;18.604;2022-12-07T05:41:54;6.82;;;2.85;;
54539;SDS011;40438;52.992;18.604;2022-12-07T05:44:21;6.03;;;2.58;;
54539;SDS011;40438;52.992;18.604;2022-12-07T05:46:47;7.25;;;3.13;;
54539;SDS011;40438;52.992;18.604;2022-12-07T05:49:13;5.72;;;2.53;;
54539;SDS011;40438;52.992;18.604;2022-12-07T05:51:39;5.57;;;2.47;;
54539;SDS011;40438;52.992;18.604;2022-12-07T05:54:04;5.55;;;2.35;;
54539;SDS011;40438;52.992;18.604;2022-12-07T05:56:30;6.70;;;2.85;;
54539;SDS011;40438;52.992;18.604;2022-12-07T05:58:56;4.97;;;2.13;;
54539;SDS011;40438;52.992;18.604;2022-12-07T06:01:23;7.47;;;3.08;;
54539;SDS011;40438;52.992;18.604;2022-12-07T06:03:49;4.88;;;2.42;;
54539;SDS011;40438;52.992;18.604;2022-12-07T06:06:14;7.28;;;2.85;;
54539;SDS011;40438;52.992;18.604;2022-12-07T06:08:40;5.18;;;2.38;;
54539;SDS011;40438;52.992;18.604;2022-12-07T06:11:06;6.40;;;2.80;;
54539;SDS011;40438;52.992;18.604;2022-12-07T06:13:32;4.28;;;2.03;;
54539;SDS011;40438;52.992;18.604;2022-12-07T06:15:57;4.40;;;2.55;;
54539;SDS011;40438;52.992;18.604;2022-12-07T06:18:25;6.88;;;2.55;;
54539;SDS011;40438;52.992;18.604;2022-12-07T06:20:50;5.38;;;2.63;;
54539;SDS011;40438;52.992;18.604;2022-12-07T06:23:16;7.53;;;2.63;;
54539;SDS011;40438;52.992;18.604;2022-12-07T06:25:44;9.88;;;3.08;;
54539;SDS011;40438;52.992;18.604;2022-12-07T06:28:10;9.02;;;2.88;;
54539;SDS011;40438;52.992;18.604;2022-12-07T06:30:36;7.20;;;2.88;;
54539;SDS011;40438;52.992;18.604;2022-12-07T06:33:02;11.02;;;3.38;;
54539;SDS011;40438;52.992;18.604;2022-12-07T06:35:29;7.43;;;2.63;;
54539;SDS011;40438;52.992;18.604;2022-12-07T06:37:55;10.77;;;3.05;;
54539;SDS011;40438;52.992;18.604;2022-12-07T06:40:20;12.13;;;4.10;;
54539;SDS011;40438;52.992;18.604;2022-12-07T06:42:46;8.35;;;4.60;;
54539;SDS011;40438;52.992;18.604;2022-12-07T06:45:12;9.57;;;3.28;;
54539;SDS011;40438;52.992;18.604;2022-12-07T06:47:38;8.48;;;3.70;;
54539;SDS011;40438;52.992;18.604;2022-12-07T06:50:04;8.05;;;2.95;;
54539;SDS011;40438;52.992;18.604;2022-12-07T06:52:32;9.55;;;3.50;;
54539;SDS011;40438;52.992;18.604;2022-12-07T06:54:58;7.90;;;2.85;;
54539;SDS011;40438;52.992;18.604;2022-12-07T06:57:23;13.45;;;4.18;;
54539;SDS011;40438;52.992;18.604;2022-12-07T06:59:49;12.77;;;4.25;;
54539;SDS011;40438;52.992;18.604;2022-12-07T07:02:15;10.90;;;3.05;;
54539;SDS011;40438;52.992;18.604;2022-12-07T07:04:41;13.52;;;4.18;;
54539;SDS011;40438;52.992;18.604;2022-12-07T07:07:06;8.85;;;3.92;;
54539;SDS011;40438;52.992;18.604;2022-12-07T07:09:34;8.82;;;4.30;;
54539;SDS011;40438;52.992;18.604;2022-12-07T07:11:59;9.55;;;3.53;;
54539;SDS011;40438;52.992;18.604;2022-12-07T07:14:25;9.40;;;3.60;;
54539;SDS011;40438;52.992;18.604;2022-12-07T07:16:51;8.32;;;3.17;;
54539;SDS011;40438;52.992;18.604;2022-12-07T07:19:17;13.70;;;4.28;;
54539;SDS011;40438;52.992;18.604;2022-12-07T07:21:43;11.95;;;4.28;;
54539;SDS011;40438;52.992;18.604;2022-12-07T07:24:08;14.85;;;3.63;;
54539;SDS011;40438;52.992;18.604;2022-12-07T07:26:36;15.35;;;4.22;;
54539;SDS011;40438;52.992;18.604;2022-12-07T07:29:01;13.73;;;3.33;;
54539;SDS011;40438;52.992;18.604;2022-12-07T07:31:27;10.57;;;4.13;;
54539;SDS011;40438;52.992;18.604;2022-12-07T07:33:53;11.23;;;4.55;;
54539;SDS011;40438;52.992;18.604;2022-12-07T07:36:19;14.60;;;4.20;;
54539;SDS011;40438;52.992;18.604;2022-12-07T07:38:44;12.05;;;3.97;;
54539;SDS011;40438;52.992;18.604;2022-12-07T07:41:10;20.52;;;4.47;;
54539;SDS011;40438;52.992;18.604;2022-12-07T07:43:37;11.88;;;4.88;;
54539;SDS011;40438;52.992;18.604;2022-12-07T07:46:03;13.38;;;4.57;;
54539;SDS011;40438;52.992;18.604;2022-12-07T07:48:29;12.75;;;4.90;;
54539;SDS011;40438;52.992;18.604;2022-12-07T07:50:55;11.93;;;3.95;;
54539;SDS011;40438;52.992;18.604;2022-12-07T07:53:20;12.88;;;5.00;;
54539;SDS011;40438;52.992;18.604;2022-12-07T07:55:52;14.32;;;5.05;;
54539;SDS011;40438;52.992;18.604;2022-12-07T07:58:18;10.48;;;5.10;;
54539;SDS011;40438;52.992;18.604;2022-12-07T08:00:46;8.90;;;4.20;;
54539;SDS011;40438;52.992;18.604;2022-12-07T08:03:11;11.27;;;5.05;;
54539;SDS011;40438;52.992;18.604;2022-12-07T08:05:37;16.88;;;5.03;;
54539;SDS011;40438;52.992;18.604;2022-12-07T08:08:03;12.07;;;4.07;;
54539;SDS011;40438;52.992;18.604;2022-12-07T08:10:29;13.23;;;4.78;;
54539;SDS011;40438;52.992;18.604;2022-12-07T08:12:55;11.45;;;4.90;;
54539;SDS011;40438;52.992;18.604;2022-12-07T08:15:20;14.77;;;5.80;;
54539;SDS011;40438;52.992;18.604;2022-12-07T08:17:48;22.00;;;5.65;;
54539;SDS011;40438;52.992;18.604;2022-12-07T08:20:13;17.80;;;5.72;;
54539;SDS011;40438;52.992;18.604;2022-12-07T08:22:41;13.27;;;5.40;;
54539;SDS011;40438;52.992;18.604;2022-12-07T08:25:07;13.25;;;4.72;;
54539;SDS011;40438;52.992;18.604;2022-12-07T08:27:33;15.15;;;4.88;;
54539;SDS011;40438;52.992;18.604;2022-12-07T08:29:58;15.80;;;6.30;;
54539;SDS011;40438;52.992;18.604;2022-12-07T08:32:24;9.32;;;3.70;;
54539;SDS011;40438;52.992;18.604;2022-12-07T08:34:51;15.57;;;4.70;;
54539;SDS011;40438;52.992;18.604;2022-12-07T08:37:17;14.98;;;5.32;;
54539;SDS011;40438;52.992;18.604;2022-12-07T08:39:43;14.75;;;5.05;;
54539;SDS011;40438;52.992;18.604;2022-12-07T08:42:09;15.18;;;4.72;;
54539;SDS011;40438;52.992;18.604;2022-12-07T08:44:34;15.80;;;4.32;;
54539;SDS011;40438;52.992;18.604;2022-12-07T08:47:00;11.90;;;5.30;;
54539;SDS011;40438;52.992;18.604;2022-12-07T08:49:30;10.90;;;4.43;;
54539;SDS011;40438;52.992;18.604;2022-12-07T08:52:01;14.23;;;4.93;;
54539;SDS011;40438;52.992;18.604;2022-12-07T08:54:29;12.02;;;4.30;;
54539;SDS011;40438;52.992;18.604;2022-12-07T08:56:55;12.20;;;4.90;;
54539;SDS011;40438;52.992;18.604;2022-12-07T08:59:21;14.50;;;5.35;;
54539;SDS011;40438;52.992;18.604;2022-12-07T09:01:48;12.90;;;4.57;;
54539;SDS011;40438;52.992;18.604;2022-12-07T09:04:14;11.55;;;4.55;;
54539;SDS011;40438;52.992;18.604;2022-12-07T09:06:40;9.18;;;3.80;;
54539;SDS011;40438;52.992;18.604;2022-12-07T09:09:08;15.38;;;5.18;;
54539;SDS011;40438;52.992;18.604;2022-12-07T09:11:35;11.07;;;4.38;;
54539;SDS011;40438;52.992;18.604;2022-12-07T09:14:00;13.15;;;5.65;;
54539;SDS011;40438;52.992;18.604;2022-12-07T09:16:26;12.25;;;5.25;;
54539;SDS011;40438;52.992;18.604;2022-12-07T09:18:52;11.05;;;3.85;;
54539;SDS011;40438;52.992;18.604;2022-12-07T09:21:18;12.25;;;5.47;;
54539;SDS011;40438;52.992;18.604;2022-12-07T09:23:43;11.55;;;5.15;;
54539;SDS011;40438;52.992;18.604;2022-12-07T09:26:10;13.95;;;4.07;;
54539;SDS011;40438;52.992;18.604;2022-12-07T09:28:36;12.27;;;5.03;;
54539;SDS011;40438;52.992;18.604;2022-12-07T09:31:02;9.85;;;4.82;;
54539;SDS011;40438;52.992;18.604;2022-12-07T09:33:29;10.70;;;4.15;;
54539;SDS011;40438;52.992;18.604;2022-12-07T09:35:55;14.50;;;5.20;;
54539;SDS011;40438;52.992;18.604;2022-12-07T09:38:20;13.88;;;5.28;;
54539;SDS011;40438;52.992;18.604;2022-12-07T09:40:46;13.00;;;5.47;;
54539;SDS011;40438;52.992;18.604;2022-12-07T09:43:14;12.43;;;4.93;;
54539;SDS011;40438;52.992;18.604;2022-12-07T09:45:42;10.90;;;5.43;;
54539;SDS011;40438;52.992;18.604;2022-12-07T09:48:11;10.75;;;4.85;;
54539;SDS011;40438;52.992;18.604;2022-12-07T09:50:43;12.77;;;5.20;;
54539;SDS011;40438;52.992;18.604;2022-12-07T09:53:09;14.50;;;5.65;;
54539;SDS011;40438;52.992;18.604;2022-12-07T09:55:40;17.83;;;5.88;;
54539;SDS011;40438;52.992;18.604;2022-12-07T09:58:08;14.18;;;6.10;;
54539;SDS011;40438;52.992;18.604;2022-12-07T10:00:44;13.60;;;5.60;;
54539;SDS011;40438;52.992;18.604;2022-12-07T10:03:10;12.63;;;5.40;;
54539;SDS011;40438;52.992;18.604;2022-12-07T10:05:37;13.18;;;6.00;;
54539;SDS011;40438;52.992;18.604;2022-12-07T10:08:07;14.95;;;6.40;;
54539;SDS011;40438;52.992;18.604;2022-12-07T10:10:36;15.55;;;6.47;;
54539;SDS011;40438;52.992;18.604;2022-12-07T10:13:02;15.77;;;7.30;;
54539;SDS011;40438;52.992;18.604;2022-12-07T10:15:44;15.82;;;5.82;;
54539;SDS011;40438;52.992;18.604;2022-12-07T10:21:00;13.90;;;6.57;;
54539;SDS011;40438;52.992;18.604;2022-12-07T10:23:34;11.80;;;5.13;;
54539;SDS011;40438;52.992;18.604;2022-12-07T10:26:12;14.10;;;6.30;;
54539;SDS011;40438;52.992;18.604;2022-12-07T10:28:46;17.02;;;6.57;;
54539;SDS011;40438;52.992;18.604;2022-12-07T10:31:16;21.90;;;6.22;;
54539;SDS011;40438;52.992;18.604;2022-12-07T10:33:48;13.70;;;5.47;;
54539;SDS011;40438;52.992;18.604;2022-12-07T10:36:17;10.82;;;5.15;;
54539;SDS011;40438;52.992;18.604;2022-12-07T10:38:49;13.32;;;5.75;;
54539;SDS011;40438;52.992;18.604;2022-12-07T10:41:16;25.85;;;6.72;;
54539;SDS011;40438;52.992;18.604;2022-12-07T10:43:49;11.63;;;5.45;;
54539;SDS011;40438;52.992;18.604;2022-12-07T10:46:28;16.85;;;6.25;;
54539;SDS011;40438;52.992;18.604;2022-12-07T10:49:25;14.43;;;6.53;;
54539;SDS011;40438;52.992;18.604;2022-12-07T10:52:18;14.80;;;6.15;;
54539;SDS011;40438;52.992;18.604;2022-12-07T10:54:54;16.33;;;7.32;;
54539;SDS011;40438;52.992;18.604;2022-12-07T10:57:36;16.13;;;7.35;;
54539;SDS011;40438;52.992;18.604;2022-12-07T11:00:14;17.27;;;7.05;;
54539;SDS011;40438;52.992;18.604;2022-12-07T11:02:53;16.42;;;6.30;;
54539;SDS011;40438;52.992;18.604;2022-12-07T11:05:39;15.98;;;7.57;;
54539;SDS011;40438;52.992;18.604;2022-12-07T11:08:13;20.27;;;7.47;;
54539;SDS011;40438;52.992;18.604;2022-12-07T11:10:48;16.60;;;6.65;;
54539;SDS011;40438;52.992;18.604;2022-12-07T11:13:28;17.70;;;6.03;;
54539;SDS011;40438;52.992;18.604;2022-12-07T11:16:14;29.80;;;6.25;;
54539;SDS011;40438;52.992;18.604;2022-12-07T11:18:51;15.32;;;6.40;;
54539;SDS011;40438;52.992;18.604;2022-12-07T11:21:26;14.40;;;6.32;;
54539;SDS011;40438;52.992;18.604;2022-12-07T11:23:56;12.85;;;6.53;;
54539;SDS011;40438;52.992;18.604;2022-12-07T11:26:34;14.43;;;6.78;;
54539;SDS011;40438;52.992;18.604;2022-12-07T11:31:49;18.23;;;5.70;;
54539;SDS011;40438;52.992;18.604;2022-12-07T11:34:24;17.67;;;5.30;;
54539;SDS011;40438;52.992;18.604;2022-12-07T11:36:59;14.20;;;6.18;;
54539;SDS011;40438;52.992;18.604;2022-12-07T11:39:28;19.75;;;6.80;;
54539;SDS011;40438;52.992;18.604;2022-12-07T11:42:00;16.98;;;7.38;;
54539;SDS011;40438;52.992;18.604;2022-12-07T11:44:32;25.02;;;7.22;;
54539;SDS011;40438;52.992;18.604;2022-12-07T11:47:08;13.15;;;5.75;;
54539;SDS011;40438;52.992;18.604;2022-12-07T11:49:42;24.25;;;5.90;;
54539;SDS011;40438;52.992;18.604;2022-12-07T11:52:16;23.45;;;6.20;;
54539;SDS011;40438;52.992;18.604;2022-12-07T11:54:47;16.60;;;5.97;;
54539;SDS011;40438;52.992;18.604;2022-12-07T11:57:18;9.32;;;5.05;;
54539;SDS011;40438;52.992;18.604;2022-12-07T11:59:48;10.10;;;5.18;;
54539;SDS011;40438;52.992;18.604;2022-12-07T12:02:18;12.30;;;5.43;;
54539;SDS011;40438;52.992;18.604;2022-12-07T12:04:51;15.43;;;5.70;;
54539;SDS011;40438;52.992;18.604;2022-12-07T12:07:22;12.88;;;5.00;;
54539;SDS011;40438;52.992;18.604;2022-12-07T12:09:49;14.32;;;5.60;;
54539;SDS011;40438;52.992;18.604;2022-12-07T12:12:23;8.43;;;3.47;;
54539;SDS011;40438;52.992;18.604;2022-12-07T12:15:05;9.88;;;4.93;;
54539;SDS011;40438;52.992;18.604;2022-12-07T12:17:45;10.23;;;4.72;;
54539;SDS011;40438;52.992;18.604;2022-12-07T12:20:22;10.32;;;4.40;;
54539;SDS011;40438;52.992;18.604;2022-12-07T12:22:52;7.13;;;3.88;;
54539;SDS011;40438;52.992;18.604;2022-12-07T12:25:21;9.90;;;4.60;;
54539;SDS011;40438;52.992;18.604;2022-12-07T12:27:51;10.77;;;3.92;;
54539;SDS011;40438;52.992;18.604;2022-12-07T12:30:26;11.20;;;4.90;;
54539;SDS011;40438;52.992;18.604;2022-12-07T12:33:01;15.52;;;5.28;;
54539;SDS011;40438;52.992;18.604;2022-12-07T12:35:31;10.75;;;5.20;;
54539;SDS011;40438;52.992;18.604;2022-12-07T12:38:25;13.80;;;6.45;;
54539;SDS011;40438;52.992;18.604;2022-12-07T12:40:54;11.77;;;5.63;;
54539;SDS011;40438;52.992;18.604;2022-12-07T12:52:01;16.65;;;5.97;;
54539;SDS011;40438;52.992;18.604;2022-12-07T12:55:15;13.57;;;5.22;;
54539;SDS011;40438;52.992;18.604;2022-12-07T12:57:42;13.98;;;6.45;;
54539;SDS011;40438;52.992;18.604;2022-12-07T13:00:15;16.45;;;7.13;;
54539;SDS011;40438;52.992;18.604;2022-12-07T13:02:47;20.30;;;7.90;;
54539;SDS011;40438;52.992;18.604;2022-12-07T13:05:18;10.13;;;6.03;;
54539;SDS011;40438;52.992;18.604;2022-12-07T13:10:39;17.55;;;6.88;;
54539;SDS011;40438;52.992;18.604;2022-12-07T13:25:07;12.18;;;5.78;;
54539;SDS011;40438;52.992;18.604;2022-12-07T13:27:35;17.50;;;5.97;;
54539;SDS011;40438;52.992;18.604;2022-12-07T13:30:07;19.10;;;8.07;;
54539;SDS011;40438;52.992;18.604;2022-12-07T13:32:39;14.48;;;6.82;;
54539;SDS011;40438;52.992;18.604;2022-12-07T13:37:56;17.83;;;6.50;;
54539;SDS011;40438;52.992;18.604;2022-12-07T13:40:23;18.55;;;7.50;;
54539;SDS011;40438;52.992;18.604;2022-12-07T13:42:56;19.27;;;7.10;;
54539;SDS011;40438;52.992;18.604;2022-12-07T13:45:24;16.83;;;7.70;;
54539;SDS011;40438;52.992;18.604;2022-12-07T13:47:52;18.65;;;8.38;;
54539;SDS011;40438;52.992;18.604;2022-12-07T13:50:22;15.68;;;6.35;;
54539;SDS011;40438;52.992;18.604;2022-12-07T13:52:49;15.70;;;6.82;;
54539;SDS011;40438;52.992;18.604;2022-12-07T13:55:16;22.70;;;8.10;;
54539;SDS011;40438;52.992;18.604;2022-12-07T13:57:44;27.80;;;9.25;;
54539;SDS011;40438;52.992;18.604;2022-12-07T14:00:14;20.92;;;7.95;;
54539;SDS011;40438;52.992;18.604;2022-12-07T14:02:54;20.70;;;7.40;;
54539;SDS011;40438;52.992;18.604;2022-12-07T14:05:23;16.08;;;6.30;;
54539;SDS011;40438;52.992;18.604;2022-12-07T14:07:52;16.20;;;6.15;;
54539;SDS011;40438;52.992;18.604;2022-12-07T14:10:23;21.67;;;7.60;;
54539;SDS011;40438;52.992;18.604;2022-12-07T14:12:52;18.38;;;7.70;;
54539;SDS011;40438;52.992;18.604;2022-12-07T14:15:19;21.45;;;8.20;;
54539;SDS011;40438;52.992;18.604;2022-12-07T14:17:49;30.98;;;8.57;;
54539;SDS011;40438;52.992;18.604;2022-12-07T14:20:28;14.93;;;5.75;;
54539;SDS011;40438;52.992;18.604;2022-12-07T14:22:55;12.43;;;6.10;;
54539;SDS011;40438;52.992;18.604;2022-12-07T14:25:21;27.98;;;8.40;;
54539;SDS011;40438;52.992;18.604;2022-12-07T14:27:49;15.75;;;6.38;;
54539;SDS011;40438;52.992;18.604;2022-12-07T14:30:18;19.75;;;6.70;;
54539;SDS011;40438;52.992;18.604;2022-12-07T14:32:44;16.75;;;7.28;;
54539;SDS011;40438;52.992;18.604;2022-12-07T14:35:12;15.45;;;6.90;;
54539;SDS011;40438;52.992;18.604;2022-12-07T14:37:40;13.63;;;5.55;;
54539;SDS011;40438;52.992;18.604;2022-12-07T14:40:07;13.68;;;5.88;;
54539;SDS011;40438;52.992;18.604;2022-12-07T14:42:37;15.25;;;6.57;;
54539;SDS011;40438;52.992;18.604;2022-12-07T14:45:11;13.02;;;6.43;;
54539;SDS011;40438;52.992;18.604;2022-12-07T14:47:39;12.18;;;6.13;;
54539;SDS011;40438;52.992;18.604;2022-12-07T14:50:06;12.00;;;6.20;;
54539;SDS011;40438;52.992;18.604;2022-12-07T14:52:33;13.43;;;6.20;;
54539;SDS011;40438;52.992;18.604;2022-12-07T14:54:59;11.80;;;6.25;;
54539;SDS011;40438;52.992;18.604;2022-12-07T14:57:24;12.82;;;6.22;;
54539;SDS011;40438;52.992;18.604;2022-12-07T14:59:50;16.95;;;6.60;;
54539;SDS011;40438;52.992;18.604;2022-12-07T15:02:17;13.60;;;6.07;;
54539;SDS011;40438;52.992;18.604;2022-12-07T15:04:43;13.38;;;6.00;;
54539;SDS011;40438;52.992;18.604;2022-12-07T15:07:11;11.52;;;5.75;;
54539;SDS011;40438;52.992;18.604;2022-12-07T15:09:40;14.90;;;7.55;;
54539;SDS011;40438;52.992;18.604;2022-12-07T15:12:06;15.00;;;6.25;;
54539;SDS011;40438;52.992;18.604;2022-12-07T15:14:32;14.38;;;5.80;;
54539;SDS011;40438;52.992;18.604;2022-12-07T15:16:57;16.40;;;5.88;;
54539;SDS011;40438;52.992;18.604;2022-12-07T15:19:24;13.18;;;6.25;;